sensor_id;sensor_type;location;lat;lon;timestamp;P1;durP1;ratioP1;P2;durP2;ratioP2
19456;SDS011;9867;48.094;11.478;2023-06-05T00:02:23;6.83;;;4.67;;
19456;SDS011;9867;48.094;11.478;2023-06-05T00:04:51;6.43;;;4.80;;
19456;SDS011;9867;48.094;11.478;2023-06-05T00:07:20;5.97;;;5.00;;
19456;SDS011;9867;48.094;11.478;2023-06-05T00:09:47;5.40;;;4.90;;
19456;SDS011;9867;48.094;11.478;2023-06-05T00:12:15;5.97;;;4.87;;
19456;SDS011;9867;48.094;11.478;2023-06-05T00:14:43;5.03;;;4.50;;
19456;SDS011;9867;48.094;11.478;2023-06-05T00:17:13;5.93;;;4.73;;
19456;SDS011;9867;48.094;11.478;2023-06-05T00:19:41;5.07;;;4.57;;
19456;SDS011;9867;48.094;11.478;2023-06-05T00:22:09;6.43;;;4.77;;
19456;SDS011;9867;48.094;11.478;2023-06-05T00:24:37;5.43;;;4.83;;
19456;SDS011;9867;48.094;11.478;2023-06-05T00:27:05;7.43;;;5.67;;
19456;SDS011;9867;48.094;11.478;2023-06-05T00:29:33;5.27;;;4.73;;
19456;SDS011;9867;48.094;11.478;2023-06-05T00:32:01;5.23;;;4.73;;
19456;SDS011;9867;48.094;11.478;2023-06-05T00:34:31;6.17;;;5.13;;
19456;SDS011;9867;48.094;11.478;2023-06-05T00:37:00;4.97;;;4.40;;
19456;SDS011;9867;48.094;11.478;2023-06-05T00:39:28;8.10;;;5.63;;
19456;SDS011;9867;48.094;11.478;2023-06-05T00:41:56;5.30;;;4.60;;
19456;SDS011;9867;48.094;11.478;2023-06-05T00:44:24;7.40;;;5.80;;
19456;SDS011;9867;48.094;11.478;2023-06-05T00:46:52;6.17;;;5.10;;
19456;SDS011;9867;48.094;11.478;2023-06-05T00:49:20;5.60;;;5.10;;
19456;SDS011;9867;48.094;11.478;2023-06-05T00:51:49;6.37;;;5.53;;
19456;SDS011;9867;48.094;11.478;2023-06-05T00:54:18;7.90;;;5.47;;
19456;SDS011;9867;48.094;11.478;2023-06-05T00:56:48;6.73;;;5.20;;
19456;SDS011;9867;48.094;11.478;2023-06-05T00:59:18;7.10;;;5.27;;
19456;SDS011;9867;48.094;11.478;2023-06-05T01:01:47;5.47;;;4.97;;
19456;SDS011;9867;48.094;11.478;2023-06-05T01:04:15;6.10;;;5.23;;
19456;SDS011;9867;48.094;11.478;2023-06-05T01:06:43;8.13;;;5.47;;
19456;SDS011;9867;48.094;11.478;2023-06-05T01:09:13;5.80;;;5.20;;
19456;SDS011;9867;48.094;11.478;2023-06-05T01:11:43;7.83;;;5.67;;
19456;SDS011;9867;48.094;11.478;2023-06-05T01:14:18;5.67;;;4.97;;
19456;SDS011;9867;48.094;11.478;2023-06-05T01:16:49;7.07;;;6.03;;
19456;SDS011;9867;48.094;11.478;2023-06-05T01:19:20;8.63;;;5.90;;
19456;SDS011;9867;48.094;11.478;2023-06-05T01:21:51;9.30;;;6.27;;
19456;SDS011;9867;48.094;11.478;2023-06-05T01:24:21;6.00;;;5.40;;
19456;SDS011;9867;48.094;11.478;2023-06-05T01:26:53;6.20;;;5.60;;
19456;SDS011;9867;48.094;11.478;2023-06-05T01:29:32;7.07;;;6.37;;
19456;SDS011;9867;48.094;11.478;2023-06-05T01:32:06;6.90;;;5.83;;
19456;SDS011;9867;48.094;11.478;2023-06-05T01:34:43;7.63;;;5.60;;
19456;SDS011;9867;48.094;11.478;2023-06-05T01:37:15;6.60;;;6.00;;
19456;SDS011;9867;48.094;11.478;2023-06-05T01:39:47;6.83;;;5.70;;
19456;SDS011;9867;48.094;11.478;2023-06-05T01:42:16;6.70;;;6.00;;
19456;SDS011;9867;48.094;11.478;2023-06-05T01:44:45;7.57;;;6.50;;
19456;SDS011;9867;48.094;11.478;2023-06-05T01:47:13;6.17;;;5.53;;
19456;SDS011;9867;48.094;11.478;2023-06-05T01:49:42;8.40;;;6.13;;
19456;SDS011;9867;48.094;11.478;2023-06-05T01:52:10;7.00;;;6.20;;
19456;SDS011;9867;48.094;11.478;2023-06-05T01:54:38;7.10;;;6.30;;
19456;SDS011;9867;48.094;11.478;2023-06-05T01:57:10;7.07;;;6.47;;
19456;SDS011;9867;48.094;11.478;2023-06-05T01:59:38;7.50;;;6.43;;
19456;SDS011;9867;48.094;11.478;2023-06-05T02:02:06;8.57;;;7.50;;
19456;SDS011;9867;48.094;11.478;2023-06-05T02:04:34;6.83;;;6.10;;
19456;SDS011;9867;48.094;11.478;2023-06-05T02:07:04;7.53;;;6.87;;
19456;SDS011;9867;48.094;11.478;2023-06-05T02:09:33;7.00;;;6.37;;
19456;SDS011;9867;48.094;11.478;2023-06-05T02:12:01;10.17;;;6.47;;
19456;SDS011;9867;48.094;11.478;2023-06-05T02:14:32;8.17;;;6.67;;
19456;SDS011;9867;48.094;11.478;2023-06-05T02:17:02;7.67;;;6.87;;
19456;SDS011;9867;48.094;11.478;2023-06-05T02:19:32;7.20;;;6.50;;
19456;SDS011;9867;48.094;11.478;2023-06-05T02:22:01;8.37;;;6.67;;
19456;SDS011;9867;48.094;11.478;2023-06-05T02:24:29;7.70;;;6.90;;
19456;SDS011;9867;48.094;11.478;2023-06-05T02:26:57;7.60;;;6.70;;
19456;SDS011;9867;48.094;11.478;2023-06-05T02:29:25;7.57;;;6.87;;
19456;SDS011;9867;48.094;11.478;2023-06-05T02:31:54;7.37;;;6.67;;
19456;SDS011;9867;48.094;11.478;2023-06-05T02:34:22;8.73;;;6.50;;
19456;SDS011;9867;48.094;11.478;2023-06-05T02:36:51;7.17;;;6.57;;
19456;SDS011;9867;48.094;11.478;2023-06-05T02:39:19;9.27;;;7.17;;
19456;SDS011;9867;48.094;11.478;2023-06-05T02:41:47;7.57;;;6.40;;
19456;SDS011;9867;48.094;11.478;2023-06-05T02:44:15;7.33;;;6.63;;
19456;SDS011;9867;48.094;11.478;2023-06-05T02:46:43;7.83;;;7.03;;
19456;SDS011;9867;48.094;11.478;2023-06-05T02:49:13;7.90;;;7.10;;
19456;SDS011;9867;48.094;11.478;2023-06-05T02:51:41;7.13;;;6.40;;
19456;SDS011;9867;48.094;11.478;2023-06-05T02:54:10;7.30;;;6.40;;
19456;SDS011;9867;48.094;11.478;2023-06-05T02:56:39;6.90;;;6.30;;
19456;SDS011;9867;48.094;11.478;2023-06-05T02:59:11;7.57;;;6.80;;
19456;SDS011;9867;48.094;11.478;2023-06-05T03:01:39;7.67;;;6.87;;
19456;SDS011;9867;48.094;11.478;2023-06-05T03:04:16;7.70;;;6.97;;
19456;SDS011;9867;48.094;11.478;2023-06-05T03:06:49;8.00;;;7.33;;
19456;SDS011;9867;48.094;11.478;2023-06-05T03:09:20;8.13;;;7.33;;
19456;SDS011;9867;48.094;11.478;2023-06-05T03:11:49;7.83;;;6.97;;
19456;SDS011;9867;48.094;11.478;2023-06-05T03:14:17;8.67;;;7.63;;
19456;SDS011;9867;48.094;11.478;2023-06-05T03:16:45;10.50;;;7.70;;
19456;SDS011;9867;48.094;11.478;2023-06-05T03:19:16;8.10;;;7.27;;
19456;SDS011;9867;48.094;11.478;2023-06-05T03:21:45;7.77;;;7.00;;
19456;SDS011;9867;48.094;11.478;2023-06-05T03:24:14;8.53;;;7.70;;
19456;SDS011;9867;48.094;11.478;2023-06-05T03:26:48;7.90;;;7.20;;
19456;SDS011;9867;48.094;11.478;2023-06-05T03:29:16;9.33;;;7.97;;
19456;SDS011;9867;48.094;11.478;2023-06-05T03:31:44;8.20;;;7.40;;
19456;SDS011;9867;48.094;11.478;2023-06-05T03:34:12;9.30;;;7.63;;
19456;SDS011;9867;48.094;11.478;2023-06-05T03:36:42;8.33;;;7.60;;
19456;SDS011;9867;48.094;11.478;2023-06-05T03:39:12;8.67;;;7.87;;
19456;SDS011;9867;48.094;11.478;2023-06-05T03:41:42;9.00;;;8.13;;
19456;SDS011;9867;48.094;11.478;2023-06-05T03:44:10;9.03;;;8.23;;
19456;SDS011;9867;48.094;11.478;2023-06-05T03:46:38;8.90;;;7.93;;
19456;SDS011;9867;48.094;11.478;2023-06-05T03:49:06;8.73;;;7.83;;
19456;SDS011;9867;48.094;11.478;2023-06-05T03:51:36;8.27;;;7.50;;
19456;SDS011;9867;48.094;11.478;2023-06-05T03:54:07;10.60;;;7.90;;
19456;SDS011;9867;48.094;11.478;2023-06-05T03:56:36;9.07;;;8.27;;
19456;SDS011;9867;48.094;11.478;2023-06-05T03:59:11;9.40;;;7.83;;
19456;SDS011;9867;48.094;11.478;2023-06-05T04:01:49;9.67;;;8.23;;
19456;SDS011;9867;48.094;11.478;2023-06-05T04:04:18;10.70;;;7.83;;
19456;SDS011;9867;48.094;11.478;2023-06-05T04:06:49;12.83;;;8.17;;
19456;SDS011;9867;48.094;11.478;2023-06-05T04:09:23;8.90;;;8.10;;
19456;SDS011;9867;48.094;11.478;2023-06-05T04:12:03;9.33;;;8.33;;
19456;SDS011;9867;48.094;11.478;2023-06-05T04:14:33;9.43;;;8.00;;
19456;SDS011;9867;48.094;11.478;2023-06-05T04:17:02;10.00;;;9.07;;
19456;SDS011;9867;48.094;11.478;2023-06-05T04:19:30;9.03;;;8.23;;
19456;SDS011;9867;48.094;11.478;2023-06-05T04:21:59;8.90;;;8.20;;
19456;SDS011;9867;48.094;11.478;2023-06-05T04:24:30;9.27;;;8.47;;
19456;SDS011;9867;48.094;11.478;2023-06-05T04:26:59;9.60;;;8.70;;
19456;SDS011;9867;48.094;11.478;2023-06-05T04:29:29;9.47;;;7.90;;
19456;SDS011;9867;48.094;11.478;2023-06-05T04:31:58;9.83;;;8.73;;
19456;SDS011;9867;48.094;11.478;2023-06-05T04:34:26;9.27;;;8.30;;
19456;SDS011;9867;48.094;11.478;2023-06-05T04:36:54;9.90;;;8.97;;
19456;SDS011;9867;48.094;11.478;2023-06-05T04:39:22;11.83;;;9.17;;
19456;SDS011;9867;48.094;11.478;2023-06-05T04:41:52;9.60;;;8.70;;
19456;SDS011;9867;48.094;11.478;2023-06-05T04:44:29;9.17;;;8.37;;
19456;SDS011;9867;48.094;11.478;2023-06-05T04:46:57;9.83;;;8.83;;
19456;SDS011;9867;48.094;11.478;2023-06-05T04:49:27;10.33;;;8.63;;
19456;SDS011;9867;48.094;11.478;2023-06-05T04:51:56;11.40;;;8.60;;
19456;SDS011;9867;48.094;11.478;2023-06-05T04:54:26;8.90;;;8.03;;
19456;SDS011;9867;48.094;11.478;2023-06-05T04:56:56;9.97;;;9.03;;
19456;SDS011;9867;48.094;11.478;2023-06-05T04:59:24;9.20;;;7.90;;
19456;SDS011;9867;48.094;11.478;2023-06-05T05:01:52;11.67;;;9.53;;
19456;SDS011;9867;48.094;11.478;2023-06-05T05:04:21;10.07;;;8.70;;
19456;SDS011;9867;48.094;11.478;2023-06-05T05:06:57;9.63;;;8.63;;
19456;SDS011;9867;48.094;11.478;2023-06-05T05:09:27;10.43;;;8.50;;
19456;SDS011;9867;48.094;11.478;2023-06-05T05:11:57;11.20;;;9.40;;
19456;SDS011;9867;48.094;11.478;2023-06-05T05:14:26;12.00;;;8.50;;
19456;SDS011;9867;48.094;11.478;2023-06-05T05:16:55;11.87;;;9.00;;
19456;SDS011;9867;48.094;11.478;2023-06-05T05:19:23;11.13;;;9.27;;
19456;SDS011;9867;48.094;11.478;2023-06-05T05:21:51;9.67;;;8.87;;
19456;SDS011;9867;48.094;11.478;2023-06-05T05:24:19;11.50;;;8.47;;
19456;SDS011;9867;48.094;11.478;2023-06-05T05:26:47;9.93;;;8.93;;
19456;SDS011;9867;48.094;11.478;2023-06-05T05:29:17;9.77;;;8.77;;
19456;SDS011;9867;48.094;11.478;2023-06-05T05:31:45;10.07;;;8.73;;
19456;SDS011;9867;48.094;11.478;2023-06-05T05:34:13;11.30;;;8.27;;
19456;SDS011;9867;48.094;11.478;2023-06-05T05:36:42;10.27;;;8.57;;
19456;SDS011;9867;48.094;11.478;2023-06-05T05:39:10;9.13;;;8.23;;
19456;SDS011;9867;48.094;11.478;2023-06-05T05:41:38;9.43;;;8.63;;
19456;SDS011;9867;48.094;11.478;2023-06-05T05:44:06;10.10;;;8.27;;
19456;SDS011;9867;48.094;11.478;2023-06-05T05:46:36;11.43;;;8.27;;
19456;SDS011;9867;48.094;11.478;2023-06-05T05:49:04;9.20;;;8.23;;
19456;SDS011;9867;48.094;11.478;2023-06-05T05:51:32;9.53;;;8.23;;
19456;SDS011;9867;48.094;11.478;2023-06-05T05:54:02;9.10;;;8.20;;
19456;SDS011;9867;48.094;11.478;2023-06-05T05:56:30;9.90;;;7.67;;
19456;SDS011;9867;48.094;11.478;2023-06-05T05:58:59;9.07;;;8.27;;
19456;SDS011;9867;48.094;11.478;2023-06-05T06:01:28;10.27;;;7.50;;
19456;SDS011;9867;48.094;11.478;2023-06-05T06:03:57;8.63;;;7.77;;
19456;SDS011;9867;48.094;11.478;2023-06-05T06:06:25;9.73;;;7.90;;
19456;SDS011;9867;48.094;11.478;2023-06-05T06:08:54;10.63;;;7.97;;
19456;SDS011;9867;48.094;11.478;2023-06-05T06:11:22;8.80;;;7.90;;
19456;SDS011;9867;48.094;11.478;2023-06-05T06:13:50;9.23;;;8.23;;
19456;SDS011;9867;48.094;11.478;2023-06-05T06:16:18;9.00;;;8.03;;
19456;SDS011;9867;48.094;11.478;2023-06-05T06:18:46;9.10;;;8.20;;
19456;SDS011;9867;48.094;11.478;2023-06-05T06:21:15;9.37;;;8.03;;
19456;SDS011;9867;48.094;11.478;2023-06-05T06:23:44;10.03;;;8.20;;
19456;SDS011;9867;48.094;11.478;2023-06-05T06:26:12;10.10;;;7.90;;
19456;SDS011;9867;48.094;11.478;2023-06-05T06:28:41;11.03;;;8.17;;
19456;SDS011;9867;48.094;11.478;2023-06-05T06:31:09;9.63;;;7.73;;
19456;SDS011;9867;48.094;11.478;2023-06-05T06:33:38;9.97;;;8.40;;
19456;SDS011;9867;48.094;11.478;2023-06-05T06:36:06;13.63;;;8.50;;
19456;SDS011;9867;48.094;11.478;2023-06-05T06:38:36;10.27;;;7.33;;
19456;SDS011;9867;48.094;11.478;2023-06-05T06:41:04;8.73;;;7.90;;
19456;SDS011;9867;48.094;11.478;2023-06-05T06:43:32;9.10;;;8.20;;
19456;SDS011;9867;48.094;11.478;2023-06-05T06:46:01;10.30;;;8.03;;
19456;SDS011;9867;48.094;11.478;2023-06-05T06:48:29;9.57;;;8.13;;
19456;SDS011;9867;48.094;11.478;2023-06-05T06:50:59;8.70;;;7.70;;
19456;SDS011;9867;48.094;11.478;2023-06-05T06:53:30;9.30;;;7.40;;
19456;SDS011;9867;48.094;11.478;2023-06-05T06:55:59;9.07;;;7.67;;
19456;SDS011;9867;48.094;11.478;2023-06-05T06:58:27;9.83;;;7.33;;
19456;SDS011;9867;48.094;11.478;2023-06-05T07:00:55;9.93;;;7.77;;
19456;SDS011;9867;48.094;11.478;2023-06-05T07:03:23;11.93;;;7.70;;
19456;SDS011;9867;48.094;11.478;2023-06-05T07:05:51;12.13;;;7.90;;
19456;SDS011;9867;48.094;11.478;2023-06-05T07:08:19;11.17;;;8.10;;
19456;SDS011;9867;48.094;11.478;2023-06-05T07:10:48;8.80;;;7.90;;
19456;SDS011;9867;48.094;11.478;2023-06-05T07:13:17;10.23;;;7.60;;
19456;SDS011;9867;48.094;11.478;2023-06-05T07:15:46;8.20;;;7.37;;
19456;SDS011;9867;48.094;11.478;2023-06-05T07:18:14;10.77;;;7.37;;
19456;SDS011;9867;48.094;11.478;2023-06-05T07:20:45;8.87;;;7.97;;
19456;SDS011;9867;48.094;11.478;2023-06-05T07:23:13;8.37;;;7.40;;
19456;SDS011;9867;48.094;11.478;2023-06-05T07:25:46;8.33;;;7.53;;
19456;SDS011;9867;48.094;11.478;2023-06-05T07:28:14;8.57;;;7.77;;
19456;SDS011;9867;48.094;11.478;2023-06-05T07:30:44;8.40;;;7.50;;
19456;SDS011;9867;48.094;11.478;2023-06-05T07:33:12;10.23;;;7.40;;
19456;SDS011;9867;48.094;11.478;2023-06-05T07:35:55;9.23;;;6.83;;
19456;SDS011;9867;48.094;11.478;2023-06-05T07:38:23;7.67;;;6.97;;
19456;SDS011;9867;48.094;11.478;2023-06-05T07:40:53;9.97;;;6.63;;
19456;SDS011;9867;48.094;11.478;2023-06-05T07:43:23;7.87;;;7.17;;
19456;SDS011;9867;48.094;11.478;2023-06-05T07:45:52;8.00;;;6.30;;
19456;SDS011;9867;48.094;11.478;2023-06-05T07:48:20;7.30;;;6.57;;
19456;SDS011;9867;48.094;11.478;2023-06-05T07:50:48;9.10;;;7.20;;
19456;SDS011;9867;48.094;11.478;2023-06-05T07:53:16;8.37;;;6.87;;
19456;SDS011;9867;48.094;11.478;2023-06-05T07:55:44;9.20;;;7.13;;
19456;SDS011;9867;48.094;11.478;2023-06-05T07:58:12;8.83;;;6.97;;
19456;SDS011;9867;48.094;11.478;2023-06-05T08:00:43;7.03;;;6.27;;
19456;SDS011;9867;48.094;11.478;2023-06-05T08:03:15;11.40;;;6.87;;
19456;SDS011;9867;48.094;11.478;2023-06-05T08:05:47;8.60;;;6.90;;
19456;SDS011;9867;48.094;11.478;2023-06-05T08:08:15;7.00;;;6.30;;
19456;SDS011;9867;48.094;11.478;2023-06-05T08:10:44;9.43;;;5.87;;
19456;SDS011;9867;48.094;11.478;2023-06-05T08:13:12;8.67;;;6.57;;
19456;SDS011;9867;48.094;11.478;2023-06-05T08:15:40;7.43;;;6.43;;
19456;SDS011;9867;48.094;11.478;2023-06-05T08:18:08;7.70;;;6.07;;
19456;SDS011;9867;48.094;11.478;2023-06-05T08:20:38;8.37;;;6.00;;
19456;SDS011;9867;48.094;11.478;2023-06-05T08:23:06;6.40;;;5.60;;
19456;SDS011;9867;48.094;11.478;2023-06-05T08:25:34;8.40;;;7.03;;
19456;SDS011;9867;48.094;11.478;2023-06-05T08:28:03;7.67;;;6.00;;
19456;SDS011;9867;48.094;11.478;2023-06-05T08:30:31;8.17;;;6.33;;
19456;SDS011;9867;48.094;11.478;2023-06-05T08:33:02;7.60;;;6.90;;
19456;SDS011;9867;48.094;11.478;2023-06-05T08:35:30;6.67;;;6.07;;
19456;SDS011;9867;48.094;11.478;2023-06-05T08:37:59;7.40;;;6.20;;
19456;SDS011;9867;48.094;11.478;2023-06-05T08:40:28;6.70;;;6.00;;
19456;SDS011;9867;48.094;11.478;2023-06-05T08:42:59;7.87;;;5.67;;
19456;SDS011;9867;48.094;11.478;2023-06-05T08:45:30;7.23;;;5.93;;
19456;SDS011;9867;48.094;11.478;2023-06-05T08:47:59;9.67;;;6.07;;
19456;SDS011;9867;48.094;11.478;2023-06-05T08:50:28;7.17;;;5.70;;
19456;SDS011;9867;48.094;11.478;2023-06-05T08:52:58;7.37;;;6.00;;
19456;SDS011;9867;48.094;11.478;2023-06-05T08:55:29;6.73;;;5.23;;
19456;SDS011;9867;48.094;11.478;2023-06-05T08:57:58;6.47;;;5.60;;
19456;SDS011;9867;48.094;11.478;2023-06-05T09:00:27;8.77;;;6.00;;
19456;SDS011;9867;48.094;11.478;2023-06-05T09:02:54;6.97;;;6.20;;
19456;SDS011;9867;48.094;11.478;2023-06-05T09:05:23;10.27;;;5.87;;
19456;SDS011;9867;48.094;11.478;2023-06-05T09:07:52;8.77;;;5.93;;
19456;SDS011;9867;48.094;11.478;2023-06-05T09:10:24;9.27;;;5.07;;
19456;SDS011;9867;48.094;11.478;2023-06-05T09:12:55;9.40;;;5.60;;
19456;SDS011;9867;48.094;11.478;2023-06-05T09:15:24;8.23;;;5.47;;
19456;SDS011;9867;48.094;11.478;2023-06-05T09:18:05;8.00;;;5.87;;
19456;SDS011;9867;48.094;11.478;2023-06-05T09:20:38;8.83;;;5.43;;
19456;SDS011;9867;48.094;11.478;2023-06-05T09:23:23;5.90;;;5.40;;
19456;SDS011;9867;48.094;11.478;2023-06-05T09:25:56;7.93;;;5.53;;
19456;SDS011;9867;48.094;11.478;2023-06-05T09:28:25;5.20;;;4.70;;
19456;SDS011;9867;48.094;11.478;2023-06-05T09:30:57;5.93;;;5.43;;
19456;SDS011;9867;48.094;11.478;2023-06-05T09:33:26;8.53;;;5.80;;
19456;SDS011;9867;48.094;11.478;2023-06-05T09:36:02;8.53;;;5.23;;
19456;SDS011;9867;48.094;11.478;2023-06-05T09:38:31;6.87;;;5.27;;
19456;SDS011;9867;48.094;11.478;2023-06-05T09:41:05;8.07;;;5.00;;
19456;SDS011;9867;48.094;11.478;2023-06-05T09:43:34;7.23;;;5.37;;
19456;SDS011;9867;48.094;11.478;2023-06-05T09:46:06;7.00;;;5.13;;
19456;SDS011;9867;48.094;11.478;2023-06-05T09:48:36;7.60;;;5.00;;
19456;SDS011;9867;48.094;11.478;2023-06-05T09:51:07;5.60;;;5.10;;
19456;SDS011;9867;48.094;11.478;2023-06-05T09:53:39;7.07;;;4.87;;
19456;SDS011;9867;48.094;11.478;2023-06-05T09:56:11;8.13;;;5.70;;
19456;SDS011;9867;48.094;11.478;2023-06-05T09:58:43;6.17;;;5.53;;
19456;SDS011;9867;48.094;11.478;2023-06-05T10:01:14;9.50;;;6.07;;
19456;SDS011;9867;48.094;11.478;2023-06-05T10:03:45;9.10;;;5.53;;
19456;SDS011;9867;48.094;11.478;2023-06-05T10:06:18;6.53;;;4.43;;
19456;SDS011;9867;48.094;11.478;2023-06-05T10:08:50;7.00;;;4.70;;
19456;SDS011;9867;48.094;11.478;2023-06-05T10:11:20;7.60;;;4.90;;
19456;SDS011;9867;48.094;11.478;2023-06-05T10:13:49;7.90;;;4.87;;
19456;SDS011;9867;48.094;11.478;2023-06-05T10:16:18;5.77;;;4.87;;
19456;SDS011;9867;48.094;11.478;2023-06-05T10:18:52;5.37;;;4.97;;
19456;SDS011;9867;48.094;11.478;2023-06-05T10:21:22;8.53;;;5.40;;
19456;SDS011;9867;48.094;11.478;2023-06-05T10:23:52;5.40;;;4.50;;
19456;SDS011;9867;48.094;11.478;2023-06-05T10:26:30;6.33;;;5.07;;
19456;SDS011;9867;48.094;11.478;2023-06-05T10:29:11;4.97;;;4.43;;
19456;SDS011;9867;48.094;11.478;2023-06-05T10:31:52;5.53;;;4.73;;
19456;SDS011;9867;48.094;11.478;2023-06-05T10:34:32;5.60;;;4.73;;
19456;SDS011;9867;48.094;11.478;2023-06-05T10:37:27;5.30;;;4.70;;
19456;SDS011;9867;48.094;11.478;2023-06-05T10:40:05;4.80;;;4.30;;
19456;SDS011;9867;48.094;11.478;2023-06-05T10:42:37;4.40;;;4.00;;
19456;SDS011;9867;48.094;11.478;2023-06-05T10:45:05;4.60;;;3.80;;
19456;SDS011;9867;48.094;11.478;2023-06-05T10:47:50;5.23;;;4.63;;
19456;SDS011;9867;48.094;11.478;2023-06-05T10:50:19;5.37;;;4.77;;
19456;SDS011;9867;48.094;11.478;2023-06-05T10:52:55;5.17;;;4.30;;
19456;SDS011;9867;48.094;11.478;2023-06-05T10:55:24;7.70;;;4.30;;
19456;SDS011;9867;48.094;11.478;2023-06-05T10:58:04;4.70;;;4.30;;
19456;SDS011;9867;48.094;11.478;2023-06-05T11:00:37;5.30;;;4.27;;
19456;SDS011;9867;48.094;11.478;2023-06-05T11:03:06;7.43;;;4.70;;
19456;SDS011;9867;48.094;11.478;2023-06-05T11:05:34;6.73;;;4.30;;
19456;SDS011;9867;48.094;11.478;2023-06-05T11:08:12;4.47;;;4.00;;
19456;SDS011;9867;48.094;11.478;2023-06-05T11:16:26;6.20;;;4.33;;
19456;SDS011;9867;48.094;11.478;2023-06-05T11:22:06;4.87;;;4.47;;
19456;SDS011;9867;48.094;11.478;2023-06-05T11:24:35;5.00;;;4.30;;
19456;SDS011;9867;48.094;11.478;2023-06-05T11:27:04;5.10;;;4.60;;
19456;SDS011;9867;48.094;11.478;2023-06-05T11:29:34;5.13;;;4.10;;
19456;SDS011;9867;48.094;11.478;2023-06-05T11:32:10;7.33;;;4.53;;
19456;SDS011;9867;48.094;11.478;2023-06-05T11:34:39;6.97;;;4.40;;
19456;SDS011;9867;48.094;11.478;2023-06-05T11:37:14;5.10;;;4.40;;
19456;SDS011;9867;48.094;11.478;2023-06-05T11:39:44;7.23;;;4.57;;
19456;SDS011;9867;48.094;11.478;2023-06-05T11:42:14;6.60;;;4.53;;
19456;SDS011;9867;48.094;11.478;2023-06-05T11:44:50;5.70;;;3.97;;
19456;SDS011;9867;48.094;11.478;2023-06-05T11:47:22;5.30;;;4.40;;
19456;SDS011;9867;48.094;11.478;2023-06-05T11:49:50;4.50;;;4.10;;
19456;SDS011;9867;48.094;11.478;2023-06-05T11:52:18;6.07;;;4.50;;
19456;SDS011;9867;48.094;11.478;2023-06-05T11:54:48;4.60;;;4.27;;
19456;SDS011;9867;48.094;11.478;2023-06-05T11:57:38;4.97;;;4.30;;
19456;SDS011;9867;48.094;11.478;2023-06-05T12:00:22;5.40;;;4.40;;
19456;SDS011;9867;48.094;11.478;2023-06-05T12:02:50;4.87;;;4.30;;
19456;SDS011;9867;48.094;11.478;2023-06-05T12:05:18;5.37;;;4.43;;
19456;SDS011;9867;48.094;11.478;2023-06-05T12:07:46;6.37;;;4.33;;
19456;SDS011;9867;48.094;11.478;2023-06-05T12:10:15;5.17;;;4.53;;
19456;SDS011;9867;48.094;11.478;2023-06-05T12:12:49;5.90;;;4.30;;
19456;SDS011;9867;48.094;11.478;2023-06-05T12:15:20;4.97;;;4.47;;
19456;SDS011;9867;48.094;11.478;2023-06-05T12:17:49;4.60;;;4.20;;
19456;SDS011;9867;48.094;11.478;2023-06-05T12:20:18;54.33;;;14.03;;
19456;SDS011;9867;48.094;11.478;2023-06-05T12:22:47;8.27;;;4.90;;
19456;SDS011;9867;48.094;11.478;2023-06-05T12:25:16;6.43;;;4.40;;
19456;SDS011;9867;48.094;11.478;2023-06-05T12:27:46;5.90;;;4.00;;
19456;SDS011;9867;48.094;11.478;2023-06-05T12:30:15;13.33;;;5.27;;
19456;SDS011;9867;48.094;11.478;2023-06-05T12:32:45;10.10;;;5.53;;
19456;SDS011;9867;48.094;11.478;2023-06-05T12:35:18;7.57;;;4.07;;
19456;SDS011;9867;48.094;11.478;2023-06-05T12:37:47;8.43;;;4.13;;
19456;SDS011;9867;48.094;11.478;2023-06-05T12:40:16;5.53;;;4.50;;
19456;SDS011;9867;48.094;11.478;2023-06-05T12:43:01;6.80;;;4.20;;
19456;SDS011;9867;48.094;11.478;2023-06-05T12:45:29;7.17;;;4.20;;
19456;SDS011;9867;48.094;11.478;2023-06-05T12:48:01;5.10;;;4.40;;
19456;SDS011;9867;48.094;11.478;2023-06-05T12:50:29;6.27;;;4.27;;
19456;SDS011;9867;48.094;11.478;2023-06-05T12:52:57;7.33;;;4.50;;
19456;SDS011;9867;48.094;11.478;2023-06-05T12:55:25;7.23;;;4.20;;
19456;SDS011;9867;48.094;11.478;2023-06-05T12:57:53;4.20;;;3.80;;
19456;SDS011;9867;48.094;11.478;2023-06-05T13:00:22;4.93;;;4.07;;
19456;SDS011;9867;48.094;11.478;2023-06-05T13:02:50;5.17;;;3.67;;
19456;SDS011;9867;48.094;11.478;2023-06-05T13:05:20;4.00;;;3.60;;
19456;SDS011;9867;48.094;11.478;2023-06-05T13:07:48;5.33;;;4.37;;
19456;SDS011;9867;48.094;11.478;2023-06-05T13:10:17;4.67;;;4.27;;
19456;SDS011;9867;48.094;11.478;2023-06-05T13:12:45;5.10;;;4.10;;
19456;SDS011;9867;48.094;11.478;2023-06-05T13:15:13;4.90;;;3.73;;
19456;SDS011;9867;48.094;11.478;2023-06-05T13:17:44;4.73;;;3.80;;
19456;SDS011;9867;48.094;11.478;2023-06-05T13:20:14;5.97;;;4.30;;
19456;SDS011;9867;48.094;11.478;2023-06-05T13:22:43;4.23;;;3.90;;
19456;SDS011;9867;48.094;11.478;2023-06-05T13:25:11;7.23;;;4.17;;
19456;SDS011;9867;48.094;11.478;2023-06-05T13:27:39;6.57;;;4.03;;
19456;SDS011;9867;48.094;11.478;2023-06-05T13:30:08;4.20;;;3.87;;
19456;SDS011;9867;48.094;11.478;2023-06-05T13:32:37;4.63;;;3.87;;
19456;SDS011;9867;48.094;11.478;2023-06-05T13:35:06;5.10;;;3.70;;
19456;SDS011;9867;48.094;11.478;2023-06-05T13:37:35;4.37;;;3.97;;
19456;SDS011;9867;48.094;11.478;2023-06-05T13:40:07;5.00;;;3.90;;
19456;SDS011;9867;48.094;11.478;2023-06-05T13:42:37;4.27;;;3.90;;
19456;SDS011;9867;48.094;11.478;2023-06-05T13:45:06;3.97;;;3.57;;
19456;SDS011;9867;48.094;11.478;2023-06-05T13:47:34;4.97;;;3.70;;
19456;SDS011;9867;48.094;11.478;2023-06-05T13:50:03;5.83;;;3.77;;
19456;SDS011;9867;48.094;11.478;2023-06-05T13:52:32;4.07;;;3.57;;
19456;SDS011;9867;48.094;11.478;2023-06-05T13:55:00;4.20;;;3.60;;
19456;SDS011;9867;48.094;11.478;2023-06-05T13:57:29;6.07;;;4.53;;
19456;SDS011;9867;48.094;11.478;2023-06-05T13:59:57;4.73;;;4.30;;
19456;SDS011;9867;48.094;11.478;2023-06-05T14:02:50;4.20;;;3.80;;
19456;SDS011;9867;48.094;11.478;2023-06-05T14:05:18;6.30;;;3.87;;
19456;SDS011;9867;48.094;11.478;2023-06-05T14:07:46;4.43;;;4.00;;
19456;SDS011;9867;48.094;11.478;2023-06-05T14:10:16;4.47;;;4.07;;
19456;SDS011;9867;48.094;11.478;2023-06-05T14:12:46;7.17;;;4.10;;
19456;SDS011;9867;48.094;11.478;2023-06-05T14:15:14;4.90;;;3.93;;
19456;SDS011;9867;48.094;11.478;2023-06-05T14:17:44;5.27;;;3.70;;
19456;SDS011;9867;48.094;11.478;2023-06-05T14:20:12;4.67;;;3.53;;
19456;SDS011;9867;48.094;11.478;2023-06-05T14:22:40;3.80;;;3.50;;
19456;SDS011;9867;48.094;11.478;2023-06-05T14:25:08;4.17;;;3.73;;
19456;SDS011;9867;48.094;11.478;2023-06-05T14:27:37;5.20;;;3.60;;
19456;SDS011;9867;48.094;11.478;2023-06-05T14:30:07;5.03;;;3.60;;
19456;SDS011;9867;48.094;11.478;2023-06-05T14:32:36;3.77;;;3.47;;
19456;SDS011;9867;48.094;11.478;2023-06-05T14:35:04;4.10;;;3.40;;
19456;SDS011;9867;48.094;11.478;2023-06-05T14:37:33;3.50;;;3.17;;
19456;SDS011;9867;48.094;11.478;2023-06-05T14:40:01;3.33;;;3.03;;
19456;SDS011;9867;48.094;11.478;2023-06-05T14:42:30;7.57;;;3.30;;
19456;SDS011;9867;48.094;11.478;2023-06-05T14:44:58;3.67;;;3.37;;
19456;SDS011;9867;48.094;11.478;2023-06-05T14:47:27;3.93;;;3.50;;
19456;SDS011;9867;48.094;11.478;2023-06-05T14:49:59;3.50;;;3.30;;
19456;SDS011;9867;48.094;11.478;2023-06-05T14:52:27;3.70;;;3.40;;
19456;SDS011;9867;48.094;11.478;2023-06-05T14:54:55;4.03;;;3.20;;
19456;SDS011;9867;48.094;11.478;2023-06-05T14:57:29;4.83;;;3.50;;
19456;SDS011;9867;48.094;11.478;2023-06-05T14:59:57;4.07;;;3.67;;
19456;SDS011;9867;48.094;11.478;2023-06-05T15:02:25;4.13;;;3.60;;
19456;SDS011;9867;48.094;11.478;2023-06-05T15:04:54;3.90;;;3.30;;
19456;SDS011;9867;48.094;11.478;2023-06-05T15:07:31;3.60;;;3.30;;
19456;SDS011;9867;48.094;11.478;2023-06-05T15:10:04;5.33;;;3.37;;
19456;SDS011;9867;48.094;11.478;2023-06-05T15:12:32;3.57;;;3.27;;